Terminal Aerodrome Forecast
Issued by NWS

Home | Current Version | Previous Version | Text Only | Print | Product List | Glossary On
Versions: 1 2 3 4 5 6 7 8 9 10 11 12 13 14 15 16 17 18 19 20 21 22 23 24 25 26 27 28 29 30 31 32 33 34 35 36 37 38 39 40 41 42 43 44 45 46 47 48 49
000
FTAK31 PANC 252006 AAA
TAFAAQ
TAF AMD
PAAQ 252006Z 2520/2618 24008KT P6SM -SN BKN020 OVC050
      TEMPO 2520/2524 1SM -SN BR OVC015
     FM260400 15007KT 4SM -SHSN BKN025
     FM260800 35006KT P6SM VCSH SCT030 BKN050
     FM261200 36007KT P6SM SCT050 BKN080=

USA.gov is the U.S. government's official web portal to all federal, state and local government web resources and services.